Terminal Aerodrome Forecast
Issued by NWS Memphis, TN

Home | Current Version | Previous Version | Text Only | Print | Product List | Glossary On
Versions: 1 2 3 4 5 6 7 8 9 10 11 12 13 14 15
574
FTUS44 KMEG 201802 AAA
TAFJBR
TAF AMD
KJBR 201802Z 2018/2118 15006KT P6SM VCTS SCT050CB SCT250
      TEMPO 2018/2021 VRB10G25KT 2SM +TSRA OVC035CB
     FM202300 VRB03KT P6SM BKN250
     FM211500 21005KT P6SM VCSH BKN040=

USA.gov is the U.S. government's official web portal to all federal, state and local government web resources and services.